Time;durP1;ratioP1;P1;durP2;ratioP2;P2;SDS_P1;SDS_P2;PMS_P1;PMS_P2;Temp;Humidity;BMP_temperature;BMP_pressure;BME280_temperature;BME280_humidity;BME280_pressure;Samples;Min_cycle;Max_cycle;Signal;HPM_P1;HPM_P2
2023/03/17 00:01:32;;;;;;;72.80;43.90;;;;;;;0.84;66.70;100953.06;103570;1250;111249;-66
2023/03/17 00:04:00;;;;;;;81.20;49.20;;;;;;;0.79;66.84;100956.40;103271;1250;138688;-66
2023/03/17 00:06:30;;;;;;;80.90;54.80;;;;;;;0.72;66.83;100955.23;103584;1249;97778;-66
2023/03/17 00:08:57;;;;;;;94.30;58.90;;;;;;;0.67;67.07;100958.72;103493;1250;107973;-66
2023/03/17 00:11:28;;;;;;;74.00;49.70;;;;;;;0.61;67.26;100959.47;103371;1253;138495;-67
2023/03/17 00:13:58;;;;;;;76.40;48.40;;;;;;;0.56;67.30;100965.89;103592;1250;111401;-67
2023/03/17 00:16:27;;;;;;;66.00;44.70;;;;;;;0.52;67.50;100959.13;103461;1250;138658;-67
2023/03/17 00:18:55;;;;;;;65.40;40.40;;;;;;;0.51;67.48;100958.06;103567;1253;97783;-67
2023/03/17 00:21:27;;;;;;;65.20;41.40;;;;;;;0.51;67.44;100954.31;103501;1250;108228;-66
2023/03/17 00:24:06;;;;;;;61.70;39.10;;;;;;;0.50;67.50;100954.12;103480;1253;138280;-66
2023/03/17 00:26:36;;;;;;;62.50;39.30;;;;;;;0.48;67.60;100944.16;103647;1250;111882;-66
2023/03/17 00:29:04;;;;;;;64.00;39.20;;;;;;;0.45;67.68;100938.63;103488;1253;138466;-66
2023/03/17 00:31:33;;;;;;;65.80;41.50;;;;;;;0.43;67.56;100944.07;103542;1250;97899;-67
2023/03/17 00:34:15;;;;;;;61.80;41.20;;;;;;;0.40;67.83;100936.31;103464;1251;138455;-67
2023/03/17 00:36:44;;;;;;;56.10;35.30;;;;;;;0.40;67.91;100941.27;104363;1253;97901;-66
2023/03/17 00:39:15;;;;;;;58.60;35.10;;;;;;;0.40;67.96;100943.33;103559;1251;112381;-66
2023/03/17 00:41:41;;;;;;;56.60;33.70;;;;;;;0.41;67.94;100942.14;102735;1253;1002975;-66
2023/03/17 00:44:11;;;;;;;56.60;29.90;;;;;;;0.41;68.03;100934.11;103546;1250;97689;-66
2023/03/17 00:46:49;;;;;;;48.40;28.40;;;;;;;0.41;67.96;100929.84;103495;1253;138265;-66
2023/03/17 00:49:20;;;;;;;51.80;30.80;;;;;;;0.41;68.03;100927.60;103556;1253;97870;-67
2023/03/17 00:51:48;;;;;;;51.70;29.50;;;;;;;0.41;68.03;100928.63;103598;1250;112248;-66
2023/03/17 00:54:17;;;;;;;53.70;30.90;;;;;;;0.41;67.97;100927.60;103508;1249;107477;-66
2023/03/17 00:56:45;;;;;;;55.40;32.20;;;;;;;0.40;67.80;100923.66;103637;1251;97907;-66
2023/03/17 00:59:24;;;;;;;57.00;32.30;;;;;;;0.40;67.87;100921.77;103829;1250;138663;-66
2023/03/17 01:01:51;;;;;;;53.70;34.00;;;;;;;0.38;67.90;100922.94;103414;1256;97913;-67
2023/03/17 01:04:22;;;;;;;59.20;35.40;;;;;;;0.35;67.96;100921.83;103808;1253;138660;-67
2023/03/17 01:06:52;;;;;;;58.70;35.00;;;;;;;0.31;67.92;100917.98;103622;1251;106990;-67
2023/03/17 01:09:20;;;;;;;64.50;34.40;;;;;;;0.29;67.85;100920.85;99525;1253;5357666;-67
2023/03/17 01:11:50;;;;;;;57.90;32.00;;;;;;;0.27;68.01;100919.27;103589;1253;139129;-67
2023/03/17 01:14:18;;;;;;;54.50;33.20;;;;;;;0.24;68.05;100914.95;103557;1250;98918;-66
2023/03/17 01:16:46;;;;;;;62.70;34.50;;;;;;;0.20;68.25;100911.27;103401;1253;138523;-67
2023/03/17 01:19:15;;;;;;;58.70;32.60;;;;;;;0.14;68.14;100908.56;103547;1256;106216;-68
2023/03/17 01:21:43;;;;;;;59.80;33.60;;;;;;;0.11;68.36;100909.02;102883;1250;1003210;-66
2023/03/17 01:24:20;;;;;;;55.20;33.30;;;;;;;0.07;68.45;100905.70;103532;1250;109838;-66
2023/03/17 01:26:49;;;;;;;56.90;32.40;;;;;;;0.03;68.45;100901.17;103559;1250;97783;-66
2023/03/17 01:29:25;;;;;;;52.90;31.50;;;;;;;0.01;68.55;100905.25;103520;1251;138527;-66
2023/03/17 01:31:55;;;;;;;60.70;34.10;;;;;;;-0.04;68.78;100901.19;103523;1253;106842;-66
2023/03/17 01:34:22;;;;;;;56.80;33.70;;;;;;;-0.08;68.74;100901.45;103473;1253;139555;-66
2023/03/17 01:36:49;;;;;;;59.50;33.80;;;;;;;-0.12;68.88;100900.86;102803;1253;1002997;-66
2023/03/17 01:39:19;;;;;;;60.50;33.90;;;;;;;-0.16;68.77;100901.62;103570;1250;97699;-66
2023/03/17 01:41:46;;;;;;;56.30;32.60;;;;;;;-0.22;69.05;100906.44;103485;1250;138929;-67
2023/03/17 01:44:19;;;;;;;60.60;33.60;;;;;;;-0.28;69.13;100908.52;103785;1251;107643;-67
2023/03/17 01:46:48;;;;;;;64.20;33.50;;;;;;;-0.33;69.27;100907.23;103411;1250;138734;-66
2023/03/17 01:49:31;;;;;;;55.40;31.70;;;;;;;-0.38;69.32;100910.00;103560;1247;107285;-67
2023/03/17 01:52:08;;;;;;;62.50;33.30;;;;;;;-0.43;69.60;100911.95;103483;1249;139923;-67
2023/03/17 01:54:42;;;;;;;57.60;32.00;;;;;;;-0.46;69.94;100911.70;103474;1254;111256;-66
2023/03/17 01:57:16;;;;;;;58.50;33.10;;;;;;;-0.50;69.85;100915.38;103545;1252;106641;-67
2023/03/17 01:59:55;;;;;;;59.10;32.30;;;;;;;-0.53;69.89;100914.97;103397;1255;139280;-67
2023/03/17 02:02:30;;;;;;;61.10;33.70;;;;;;;-0.54;70.01;100914.73;103539;1251;110900;-67
2023/03/17 02:05:20;;;;;;;57.10;31.60;;;;;;;-0.56;70.17;100914.72;103392;1253;138662;-67
2023/03/17 02:07:59;;;;;;;58.40;32.30;;;;;;;-0.56;70.12;100912.83;103841;1253;111114;-67
2023/03/17 02:10:34;;;;;;;;;;;;;;;-0.58;70.16;100910.55;103403;1253;138734;-66
2023/03/17 02:13:15;;;;;;;54.10;31.00;;;;;;;-0.59;70.20;100914.12;103524;1253;97851;-67
2023/03/17 02:15:53;;;;;;;61.50;32.10;;;;;;;-0.59;70.33;100913.95;102728;1250;1002860;-67
2023/03/17 02:18:33;;;;;;;57.50;32.30;;;;;;;-0.60;70.49;100918.55;103558;1253;97756;-66
2023/03/17 02:21:34;;;;;;;55.30;31.10;;;;;;;-0.63;70.54;100920.38;103562;1250;110385;-66
2023/03/17 02:24:20;;;;;;;58.40;32.80;;;;;;;-0.68;70.79;100921.11;103448;1250;138463;-66
2023/03/17 02:26:53;;;;;;;57.50;31.50;;;;;;;-0.70;70.66;100920.20;103629;1253;97861;-67
2023/03/17 02:29:36;;;;;;;60.70;34.20;;;;;;;-0.72;70.83;100921.70;103652;1249;138473;-67
2023/03/17 02:32:18;;;;;;;67.50;34.40;;;;;;;-0.75;70.98;100925.70;103850;1253;97660;-67
2023/03/17 02:35:07;;;;;;;63.60;34.80;;;;;;;-0.78;70.92;100923.42;103481;1247;139121;-66
2023/03/17 02:37:36;;;;;;;64.50;34.10;;;;;;;-0.78;70.83;100924.45;103579;1251;107658;-67
2023/03/17 02:40:24;;;;;;;67.40;34.30;;;;;;;-0.78;71.00;100924.44;102747;1253;1002550;-66
2023/03/17 02:42:52;;;;;;;67.80;35.00;;;;;;;-0.79;70.97;100925.62;103576;1253;107958;-67
2023/03/17 02:45:31;;;;;;;66.60;36.60;;;;;;;-0.79;71.05;100923.91;103629;1249;97785;-66
2023/03/17 02:48:18;;;;;;;63.10;34.90;;;;;;;-0.79;71.02;100927.48;103487;1250;138520;-67
2023/03/17 02:51:06;;;;;;;64.60;35.30;;;;;;;-0.81;71.05;100928.98;103562;1253;107434;-67
2023/03/17 02:53:36;;;;;;;67.70;36.20;;;;;;;-0.83;71.18;100931.84;103543;1253;138779;-67
2023/03/17 02:56:04;;;;;;;71.50;37.60;;;;;;;-0.84;70.99;100930.45;103561;1251;107686;-67
2023/03/17 02:58:31;;;;;;;68.60;38.80;;;;;;;-0.85;71.00;100937.58;103426;1250;139075;-67
2023/03/17 03:00:58;;;;;;;67.60;38.70;;;;;;;-0.86;71.27;100937.39;103580;1251;110556;-67
2023/03/17 03:03:26;;;;;;;70.70;38.30;;;;;;;-0.89;71.43;100936.11;103501;1253;107607;-67
2023/03/17 03:05:53;;;;;;;70.60;38.80;;;;;;;-0.92;71.42;100940.46;103436;1250;138813;-67
2023/03/17 03:08:20;;;;;;;73.40;39.70;;;;;;;-0.96;71.45;100946.19;103575;1250;108508;-67
2023/03/17 03:10:47;;;;;;;66.70;39.70;;;;;;;-0.98;71.50;100951.59;103531;1248;139302;-67
2023/03/17 03:13:25;;;;;;;69.80;37.40;;;;;;;-1.01;71.54;100954.59;103459;1250;111800;-67
2023/03/17 03:16:13;;;;;;;72.40;38.80;;;;;;;-1.04;71.64;100955.03;103363;1253;139079;-67
2023/03/17 03:18:40;;;;;;;71.70;39.20;;;;;;;-1.04;71.79;100959.13;103639;1250;97848;-67
2023/03/17 03:21:08;;;;;;;72.20;38.10;;;;;;;-1.04;71.92;100957.77;103538;1250;107453;-67
2023/03/17 03:23:38;;;;;;;69.30;38.60;;;;;;;-1.03;71.92;100967.33;103394;1251;138837;-67
2023/03/17 03:26:06;;;;;;;66.70;36.80;;;;;;;-1.02;71.98;100970.10;103558;1251;110495;-67
2023/03/17 03:28:36;;;;;;;63.10;36.70;;;;;;;-1.00;71.95;100969.80;103453;1250;138956;-67
2023/03/17 03:31:07;;;;;;;71.40;37.10;;;;;;;-0.98;71.96;100966.77;103539;1256;97625;-67
2023/03/17 03:33:37;;;;;;;66.60;36.00;;;;;;;-0.96;71.97;100964.79;103546;1256;108938;-67
2023/03/17 03:36:16;;;;;;;67.80;38.30;;;;;;;-0.94;72.05;100966.04;102725;1253;1002517;-67
2023/03/17 03:38:57;;;;;;;65.50;37.50;;;;;;;-0.93;71.97;100968.27;103526;1250;111422;-67
2023/03/17 03:41:31;;;;;;;78.10;40.60;;;;;;;-0.93;72.05;100974.09;103419;1263;138978;-67
2023/03/17 03:44:12;;;;;;;69.20;38.00;;;;;;;-0.92;71.84;100973.23;103578;1253;97677;-67
2023/03/17 03:46:51;;;;;;;72.90;40.30;;;;;;;-0.92;72.03;100974.61;103454;1249;138576;-67
2023/03/17 03:49:25;;;;;;;;;;;;;;;-0.92;72.01;100971.02;103519;1250;97792;-67
2023/03/17 03:52:13;;;;;;;78.20;39.30;;;;;;;-0.95;72.01;100973.01;103472;1253;125286;-67
2023/03/17 03:54:42;;;;;;;74.90;40.20;;;;;;;-0.97;71.87;100969.71;103487;1253;107398;-67
2023/03/17 03:57:09;;;;;;;75.50;40.10;;;;;;;-0.98;71.93;100959.27;103575;1253;97684;-67
2023/03/17 03:59:40;;;;;;;76.80;42.00;;;;;;;-0.99;71.86;100958.56;103428;1250;139087;-67
2023/03/17 04:02:07;;;;;;;76.20;41.60;;;;;;;-1.01;72.09;100961.25;103495;1255;97810;-67
2023/03/17 04:04:56;;;;;;;75.40;41.10;;;;;;;-1.03;71.87;100960.50;103449;1250;138641;-67
2023/03/17 04:07:32;;;;;;;73.70;39.90;;;;;;;-1.06;72.00;100954.14;103558;1253;107858;-67
2023/03/17 04:09:59;;;;;;;72.20;39.60;;;;;;;-1.08;72.23;100953.55;103436;1253;138943;-68
2023/03/17 04:12:46;;;;;;;76.00;39.50;;;;;;;-1.09;72.14;100952.30;103532;1250;106509;-67
2023/03/17 04:15:19;;;;;;;73.80;40.10;;;;;;;-1.11;72.30;100948.50;103517;1253;98473;-67
2023/03/17 04:17:53;;;;;;;69.80;39.40;;;;;;;-1.12;72.31;100950.34;103423;1263;138597;-66
2023/03/17 04:20:41;;;;;;;68.30;37.40;;;;;;;-1.13;72.28;100954.27;102766;1250;1003461;-67
2023/03/17 04:23:30;;;;;;;69.90;38.80;;;;;;;-1.14;72.37;100958.84;103375;1251;140356;-68
2023/03/17 04:26:09;;;;;;;65.80;37.20;;;;;;;-1.13;72.57;100960.73;103484;1253;106781;-67
2023/03/17 04:28:56;;;;;;;68.10;37.20;;;;;;;-1.15;72.31;100962.75;103419;1251;139556;-67
2023/03/17 04:31:38;;;;;;;64.90;36.80;;;;;;;-1.15;72.46;100970.08;103588;1250;111584;-67
2023/03/17 04:34:18;;;;;;;66.80;36.40;;;;;;;-1.17;72.53;100970.70;103390;1253;139066;-67
2023/03/17 04:37:06;;;;;;;71.50;37.80;;;;;;;-1.17;72.63;100964.23;103541;1253;98104;-68
2023/03/17 04:39:36;;;;;;;63.40;37.10;;;;;;;-1.17;72.64;100961.34;103543;1253;110032;-68
2023/03/17 04:42:13;;;;;;;67.40;37.20;;;;;;;-1.16;72.77;100973.63;103347;1253;138674;-67
2023/03/17 04:45:00;;;;;;;64.50;37.00;;;;;;;-1.16;72.81;100978.07;103483;1250;110378;-68
2023/03/17 04:47:48;;;;;;;69.70;36.40;;;;;;;-1.16;72.86;100973.45;102636;1253;1003517;-68
2023/03/17 04:50:36;;;;;;;66.60;36.40;;;;;;;-1.17;72.75;100977.37;103556;1251;98328;-68
2023/03/17 04:53:13;;;;;;;68.70;37.90;;;;;;;-1.17;72.63;100977.02;103419;1250;138620;-67
2023/03/17 04:55:53;;;;;;;69.00;36.70;;;;;;;-1.17;72.75;100971.55;103465;1250;97829;-67
2023/03/17 04:58:40;;;;;;;68.60;36.30;;;;;;;-1.14;72.97;100960.02;103436;1251;138727;-67
2023/03/17 05:01:28;;;;;;;65.20;35.40;;;;;;;-1.10;72.82;100953.81;103460;1250;107911;-67
2023/03/17 05:04:15;;;;;;;58.30;33.60;;;;;;;-1.03;72.83;100953.35;103452;1253;139071;-67
2023/03/17 05:07:17;;;;;;;57.40;32.60;;;;;;;-0.94;72.79;100957.49;103544;1253;108045;-67
2023/03/17 05:10:06;;;;;;;60.20;32.50;;;;;;;-0.85;72.60;100963.55;103409;1250;138972;-68
2023/03/17 05:12:44;;;;;;;58.50;32.70;;;;;;;-0.72;72.43;100963.19;103540;1253;111158;-67
2023/03/17 05:15:32;;;;;;;58.60;32.30;;;;;;;-0.48;72.20;100964.95;103438;1253;110362;-66
2023/03/17 05:18:13;;;;;;;59.30;31.30;;;;;;;-0.08;71.69;100981.96;103352;1253;139110;-68
2023/03/17 05:21:01;;;;;;;55.70;31.40;;;;;;;0.57;71.15;100986.27;103509;1253;107908;-67
2023/03/17 05:23:41;;;;;;;55.60;31.50;;;;;;;1.07;70.51;100988.60;103406;1253;138557;-67
2023/03/17 05:26:29;;;;;;;55.20;30.20;;;;;;;1.27;69.60;100990.49;103590;1255;113951;-67
2023/03/17 05:29:16;;;;;;;50.80;29.30;;;;;;;1.45;69.02;100988.06;103407;1251;138657;-68
2023/03/17 05:31:58;;;;;;;48.70;28.80;;;;;;;1.77;68.10;100995.60;103565;1253;98292;-68
2023/03/17 05:34:45;;;;;;;;;;;;;;;2.37;67.07;100988.73;103446;1254;138218;-67
2023/03/17 05:37:26;;;;;;;50.70;28.40;;;;;;;3.17;65.70;100993.61;103531;1251;97679;-67
2023/03/17 05:39:56;;;;;;;51.20;28.10;;;;;;;4.11;64.22;100988.33;103566;1254;110703;-67
2023/03/17 05:42:44;;;;;;;42.30;27.10;;;;;;;5.15;62.39;100983.73;103638;1253;107740;-67
2023/03/17 05:45:13;;;;;;;45.40;26.40;;;;;;;6.25;60.71;100990.79;103598;1253;98407;-65
2023/03/17 05:47:43;;;;;;;43.70;26.40;;;;;;;7.41;58.91;100990.56;103703;1251;138067;-66
2023/03/17 05:50:12;;;;;;;41.10;27.10;;;;;;;8.66;57.18;100991.59;103928;1253;97791;-66
2023/03/17 05:52:42;;;;;;;36.10;24.90;;;;;;;9.99;55.44;100989.95;103544;1257;137659;-66
2023/03/17 05:55:11;;;;;;;42.80;25.60;;;;;;;11.10;53.54;100984.59;103614;1251;107558;-66
2023/03/17 05:57:38;;;;;;;40.10;25.10;;;;;;;12.17;51.73;100980.22;103549;1251;97666;-67
2023/03/17 06:00:07;;;;;;;36.60;24.90;;;;;;;13.19;50.04;100977.98;103448;1251;138483;-69
2023/03/17 06:02:35;;;;;;;33.70;22.60;;;;;;;14.13;47.83;100979.92;103689;1253;97787;-67
2023/03/17 06:05:02;;;;;;;39.00;24.80;;;;;;;14.86;45.94;100975.35;104218;1251;138636;-67
2023/03/17 06:07:29;;;;;;;35.20;23.40;;;;;;;15.59;44.03;100970.73;104257;1251;107653;-68
2023/03/17 06:10:16;;;;;;;35.90;23.00;;;;;;;16.35;42.71;100963.79;103438;1251;138292;-67
2023/03/17 06:12:43;;;;;;;36.50;22.10;;;;;;;17.03;41.17;100959.59;103926;1251;108402;-67
2023/03/17 06:15:11;;;;;;;31.40;19.60;;;;;;;17.79;40.72;100954.63;103530;1253;97787;-67
2023/03/17 06:17:39;;;;;;;32.10;21.80;;;;;;;17.76;39.24;100947.92;103568;1253;137968;-66
2023/03/17 06:20:07;;;;;;;29.90;21.20;;;;;;;17.45;39.10;100949.27;103552;1253;108098;-67
2023/03/17 06:22:36;;;;;;;31.80;19.30;;;;;;;16.62;37.83;100947.77;103525;1253;138489;-67
2023/03/17 06:25:04;;;;;;;27.10;17.50;;;;;;;15.00;37.55;100951.16;103653;1252;108152;-68
2023/03/17 06:27:31;;;;;;;26.40;19.10;;;;;;;13.65;37.56;100958.30;103912;1254;97802;-68
2023/03/17 06:29:59;;;;;;;29.00;18.10;;;;;;;12.83;38.59;100957.08;103608;1253;137931;-69
2023/03/17 06:32:26;;;;;;;29.20;18.20;;;;;;;13.11;39.55;100955.19;103593;1253;107774;-69
2023/03/17 06:34:54;;;;;;;29.00;18.10;;;;;;;14.09;39.34;100963.27;103505;1251;138167;-69
2023/03/17 06:37:21;;;;;;;29.00;17.50;;;;;;;15.48;38.36;100958.33;103522;1253;108174;-69
2023/03/17 06:39:48;;;;;;;26.00;17.50;;;;;;;16.80;36.56;100959.27;103605;1251;98176;-68
2023/03/17 06:42:16;;;;;;;25.10;16.70;;;;;;;17.30;34.14;100967.05;103480;1251;138556;-70
2023/03/17 06:44:44;;;;;;;23.80;15.60;;;;;;;16.49;34.46;100971.34;103543;1253;107818;-70
2023/03/17 06:47:11;;;;;;;22.20;15.30;;;;;;;15.06;34.82;100975.95;103629;1250;138756;-68
2023/03/17 06:49:38;;;;;;;24.10;15.20;;;;;;;14.10;36.11;100980.38;104056;1251;107743;-69
2023/03/17 06:52:07;;;;;;;25.90;15.70;;;;;;;13.95;36.18;100983.88;103940;1253;137615;-68
2023/03/17 06:54:35;;;;;;;25.40;15.00;;;;;;;14.81;35.98;100979.38;104164;1251;110871;-70
2023/03/17 06:57:02;;;;;;;25.50;16.00;;;;;;;16.14;35.18;100973.09;103528;1250;107923;-68
2023/03/17 06:59:30;;;;;;;27.40;16.00;;;;;;;17.16;33.69;100970.20;103682;1251;139792;-67
2023/03/17 07:01:57;;;;;;;24.00;15.00;;;;;;;17.11;32.51;100970.81;104121;1253;107415;-68
2023/03/17 07:04:25;;;;;;;25.10;15.80;;;;;;;15.98;32.39;100978.33;103404;1251;138389;-69
2023/03/17 07:06:52;;;;;;;23.70;15.20;;;;;;;15.17;32.90;100977.83;103531;1253;110994;-71
2023/03/17 07:09:20;;;;;;;28.20;16.00;;;;;;;15.47;32.84;100974.86;103576;1253;108543;-70
2023/03/17 07:11:48;;;;;;;24.30;15.50;;;;;;;16.01;32.70;100975.59;103566;1253;138445;-71
2023/03/17 07:14:15;;;;;;;27.00;15.20;;;;;;;16.61;32.84;100965.04;103637;1251;108581;-68
2023/03/17 07:16:43;;;;;;;26.20;15.50;;;;;;;17.20;31.62;100964.55;103444;1249;138305;-69
2023/03/17 07:19:11;;;;;;;26.10;15.80;;;;;;;17.52;30.46;100971.61;103560;1249;111357;-70
2023/03/17 07:21:38;;;;;;;22.90;15.50;;;;;;;17.64;30.45;100964.88;103531;1251;106826;-70
2023/03/17 07:24:06;;;;;;;22.80;15.80;;;;;;;17.76;30.49;100960.25;103444;1251;138272;-70
2023/03/17 07:26:33;;;;;;;22.70;15.90;;;;;;;17.99;30.53;100960.66;103515;1251;106460;-67
2023/03/17 07:29:01;;;;;;;22.00;15.60;;;;;;;18.19;29.75;100968.27;103470;1253;138826;-71
2023/03/17 07:31:28;;;;;;;23.60;15.00;;;;;;;18.19;29.50;100968.77;103507;1253;110709;-69
2023/03/17 07:33:56;;;;;;;22.60;16.10;;;;;;;17.93;28.96;100964.50;103441;1251;108112;-69
2023/03/17 07:36:24;;;;;;;26.30;16.50;;;;;;;17.93;30.08;100959.00;103535;1251;97631;-69
2023/03/17 07:38:51;;;;;;;27.10;15.60;;;;;;;18.29;30.17;100955.55;103394;1253;108321;-69
2023/03/17 07:41:19;;;;;;;25.10;16.10;;;;;;;18.48;29.53;100951.02;103440;1253;138067;-69
2023/03/17 07:43:46;;;;;;;26.10;16.20;;;;;;;18.69;29.59;100953.77;103571;1251;110402;-68
2023/03/17 07:46:13;;;;;;;28.10;15.80;;;;;;;18.99;29.65;100943.48;103485;1251;138532;-68
2023/03/17 07:48:42;;;;;;;26.00;13.90;;;;;;;19.25;29.52;100945.67;103611;1250;97666;-69
2023/03/17 07:51:13;;;;;;;22.20;13.80;;;;;;;19.41;28.33;100946.41;103535;1251;108991;-71
2023/03/17 07:53:41;;;;;;;23.60;15.00;;;;;;;19.35;28.21;100950.08;103457;1253;138128;-70
2023/03/17 07:56:10;;;;;;;26.30;14.80;;;;;;;19.20;28.32;100950.73;103579;1251;111397;-68
2023/03/17 07:58:37;;;;;;;23.40;15.00;;;;;;;19.34;28.74;100941.87;103379;1253;138576;-69
2023/03/17 08:01:07;;;;;;;20.60;14.30;;;;;;;19.49;28.65;100938.48;103479;1249;99245;-69
2023/03/17 08:03:48;;;;;;;25.30;13.80;;;;;;;19.43;26.97;100943.61;103529;1249;108531;-67
2023/03/17 08:06:15;;;;;;;24.30;14.20;;;;;;;19.19;27.13;100942.35;103340;1251;138192;-65
2023/03/17 08:08:42;;;;;;;23.20;13.90;;;;;;;18.90;27.62;100943.82;103515;1253;111682;-69
2023/03/17 08:11:11;;;;;;;20.70;12.90;;;;;;;18.73;27.92;100947.92;103365;1250;138129;-69
2023/03/17 08:13:38;;;;;;;20.90;11.80;;;;;;;18.53;27.25;100945.28;103533;1253;97817;-69
2023/03/17 08:16:07;;;;;;;20.90;12.90;;;;;;;18.19;27.94;100941.99;103290;1251;138270;-70
2023/03/17 08:18:34;;;;;;;20.90;12.80;;;;;;;17.88;28.30;100938.52;103505;1253;97763;-68
2023/03/17 08:21:01;;;;;;;22.40;12.40;;;;;;;17.70;28.53;100942.79;103498;1251;111521;-70
2023/03/17 08:23:28;;;;;;;19.40;12.40;;;;;;;17.45;28.60;100941.54;103398;1254;138231;-71
2023/03/17 08:26:00;;;;;;;22.20;12.00;;;;;;;17.47;28.76;100946.17;103472;1251;97974;-70
2023/03/17 08:28:30;;;;;;;16.60;11.20;;;;;;;17.81;28.53;100955.59;103390;1251;138087;-70
2023/03/17 08:31:08;;;;;;;17.70;11.20;;;;;;;17.76;27.94;100963.05;103488;1254;97797;-70
2023/03/17 08:33:38;;;;;;;20.50;10.90;;;;;;;17.17;27.97;100944.86;103640;1251;111257;-68
2023/03/17 08:36:11;;;;;;;19.20;10.20;;;;;;;16.34;28.87;100962.06;103315;1253;138216;-70
2023/03/17 08:38:40;;;;;;;15.70;10.20;;;;;;;15.28;29.36;100957.92;103608;1251;97698;-70
2023/03/17 08:41:11;;;;;;;18.30;9.90;;;;;;;14.39;30.57;100964.14;103362;1254;138030;-70
2023/03/17 08:43:39;;;;;;;18.70;10.30;;;;;;;13.53;31.24;100968.34;103385;1251;96735;-71
2023/03/17 08:46:08;;;;;;;19.50;9.50;;;;;;;12.94;32.18;100978.02;103407;1251;138707;-71
2023/03/17 08:48:36;;;;;;;18.60;9.80;;;;;;;12.43;33.00;100981.09;103538;1253;108970;-70
2023/03/17 08:51:04;;;;;;;15.50;9.50;;;;;;;12.26;33.40;100982.80;103607;1250;96660;-70
2023/03/17 08:53:33;;;;;;;17.70;8.70;;;;;;;12.63;33.15;100981.03;103460;1249;138341;-72
2023/03/17 08:56:02;;;;;;;14.10;7.60;;;;;;;12.96;32.38;100978.16;103574;1253;97769;-72
2023/03/17 08:58:30;;;;;;;10.60;6.80;;;;;;;13.21;32.17;100981.59;103315;1248;138070;-72
2023/03/17 09:01:00;;;;;;;14.50;7.20;;;;;;;13.60;31.81;100985.22;103619;1251;108953;-71
2023/03/17 09:03:48;;;;;;;16.00;7.80;;;;;;;14.17;31.76;100975.58;103541;1251;97851;-71
2023/03/17 09:06:16;;;;;;;13.20;8.30;;;;;;;14.69;31.93;100971.47;103457;1253;138281;-71
2023/03/17 09:08:46;;;;;;;10.30;7.10;;;;;;;15.22;30.56;100982.37;103443;1253;97782;-70
2023/03/17 09:11:16;;;;;;;13.60;7.30;;;;;;;15.38;29.91;100983.63;103510;1253;137753;-71
2023/03/17 09:13:45;;;;;;;15.90;7.30;;;;;;;15.51;29.82;100979.96;103503;1251;109506;-70
2023/03/17 09:16:13;;;;;;;12.20;7.10;;;;;;;15.86;30.17;100982.21;103432;1251;138160;-72
2023/03/17 09:18:40;;;;;;;14.90;6.00;;;;;;;16.28;29.94;100978.79;103522;1251;106787;-71
2023/03/17 09:21:10;;;;;;;10.30;5.70;;;;;;;16.64;29.50;100978.79;103487;1253;97761;-70
2023/03/17 09:23:37;;;;;;;8.70;4.90;;;;;;;16.93;29.03;100968.84;103452;1253;138085;-71
2023/03/17 09:26:05;;;;;;;10.90;5.80;;;;;;;16.89;27.88;100975.02;103538;1251;108800;-72
2023/03/17 09:28:32;;;;;;;13.00;5.40;;;;;;;16.57;27.93;100974.54;103454;1253;138219;-71
2023/03/17 09:31:01;;;;;;;8.90;5.00;;;;;;;16.56;27.67;100973.89;104390;1249;107673;-70
2023/03/17 09:33:29;;;;;;;10.30;5.10;;;;;;;16.36;27.71;100964.59;103654;1251;99323;-72
2023/03/17 09:35:57;;;;;;;10.60;5.00;;;;;;;16.26;28.38;100961.52;103524;1249;138458;-69
2023/03/17 09:38:25;;;;;;;10.70;4.40;;;;;;;16.42;27.93;100971.69;103880;1251;108866;-68
2023/03/17 09:40:57;;;;;;;8.60;4.60;;;;;;;16.32;27.91;100958.27;103788;1251;138270;-69
2023/03/17 09:43:35;;;;;;;8.70;4.30;;;;;;;16.22;27.76;100958.04;104647;1253;107836;-68
2023/03/17 09:46:21;;;;;;;8.30;4.10;;;;;;;16.13;27.74;100955.43;103476;1253;138069;-68
2023/03/17 09:48:54;;;;;;;8.00;4.40;;;;;;;16.08;27.84;100954.59;103547;1252;111324;-68
2023/03/17 09:51:21;;;;;;;7.80;4.30;;;;;;;16.22;28.31;100940.45;103424;1251;106619;-69
2023/03/17 09:53:54;;;;;;;6.90;4.30;;;;;;;16.32;27.73;100938.08;103351;1251;137933;-67
2023/03/17 09:56:23;;;;;;;8.40;4.40;;;;;;;16.47;27.49;100939.34;103470;1251;107277;-69
2023/03/17 09:58:54;;;;;;;10.00;4.10;;;;;;;16.49;27.49;100928.21;103391;1251;137799;-68
2023/03/17 10:01:22;;;;;;;8.80;4.20;;;;;;;16.44;26.76;100933.67;103527;1253;111872;-68
2023/03/17 10:03:50;;;;;;;10.10;4.20;;;;;;;16.31;27.37;100923.02;103379;1251;108120;-67
2023/03/17 10:06:36;;;;;;;9.10;3.70;;;;;;;16.20;26.15;100917.56;103360;1253;137941;-67
2023/03/17 10:09:13;;;;;;;8.50;4.40;;;;;;;15.81;26.71;100919.45;103465;1253;107253;-71
2023/03/17 10:11:43;;;;;;;7.60;4.10;;;;;;;15.63;27.30;100910.06;103287;1251;137879;-69
2023/03/17 10:14:26;;;;;;;9.10;4.20;;;;;;;15.42;27.29;100917.73;103447;1251;111319;-67
2023/03/17 10:16:58;;;;;;;7.90;4.20;;;;;;;15.26;27.00;100913.15;103380;1251;137971;-67
2023/03/17 10:19:30;;;;;;;6.90;4.10;;;;;;;15.05;27.45;100910.36;103524;1250;97782;-67
2023/03/17 10:22:03;;;;;;;7.60;4.50;;;;;;;15.07;27.56;100914.80;104943;1249;107729;-69
2023/03/17 10:24:32;;;;;;;7.10;4.40;;;;;;;14.86;27.50;100908.29;104314;1252;96354;-68
2023/03/17 10:27:03;;;;;;;8.40;4.60;;;;;;;14.70;28.25;100901.20;103613;1253;110395;-72
2023/03/17 10:29:31;;;;;;;8.70;4.80;;;;;;;14.68;28.05;100915.11;103416;1253;137980;-67
2023/03/17 10:31:58;;;;;;;8.60;4.20;;;;;;;14.38;27.77;100911.16;103646;1254;98059;-71
2023/03/17 10:34:31;;;;;;;12.10;5.00;;;;;;;14.19;28.40;100901.20;103560;1253;137839;-70
2023/03/17 10:37:04;;;;;;;6.90;4.40;;;;;;;14.16;28.51;100901.48;103950;1248;97884;-71
2023/03/17 10:39:32;;;;;;;8.00;4.80;;;;;;;13.97;28.82;100895.16;103671;1250;110296;-71
2023/03/17 10:42:07;;;;;;;10.00;5.60;;;;;;;13.82;28.86;100910.23;103319;1253;137923;-69
2023/03/17 10:44:48;;;;;;;9.20;6.00;;;;;;;13.52;29.56;100893.42;103557;1253;97780;-71
2023/03/17 10:47:44;;;;;;;9.30;5.60;;;;;;;13.31;29.59;100888.89;103467;1253;137705;-71
2023/03/17 10:50:24;;;;;;;10.40;5.40;;;;;;;13.17;30.02;100893.52;103281;1257;97957;-71
2023/03/17 10:52:56;;;;;;;11.70;5.70;;;;;;;12.86;30.03;100902.87;103587;1254;138124;-71
2023/03/17 10:55:28;;;;;;;10.40;5.40;;;;;;;12.54;30.54;100890.59;103449;1254;108012;-70
2023/03/17 10:58:03;;;;;;;10.60;5.70;;;;;;;12.31;30.88;100901.75;103535;1254;97783;-69
2023/03/17 11:00:37;;;;;;;13.10;5.80;;;;;;;12.07;31.61;100890.77;103488;1257;109129;-69
2023/03/17 11:03:15;;;;;;;10.40;5.40;;;;;;;11.95;31.52;100906.93;103324;1254;98315;-68
2023/03/17 11:05:56;;;;;;;10.30;6.40;;;;;;;11.67;32.07;100899.65;103029;1260;139158;-68
2023/03/17 11:08:24;;;;;;;11.80;5.60;;;;;;;11.56;32.43;100906.05;103172;1254;107972;-69
2023/03/17 11:10:57;;;;;;;10.10;6.20;;;;;;;11.51;32.89;100895.55;103094;1259;138212;-69
2023/03/17 11:13:30;;;;;;;9.90;5.50;;;;;;;11.58;33.02;100891.01;103177;1254;107057;-68
2023/03/17 11:16:20;;;;;;;10.10;5.50;;;;;;;11.54;32.56;100895.98;103132;1254;138124;-68
2023/03/17 11:18:54;;;;;;;10.60;4.90;;;;;;;11.25;32.38;100886.26;103225;1256;111484;-68
2023/03/17 11:21:30;;;;;;;9.60;5.20;;;;;;;11.15;32.60;100889.83;103233;1257;106786;-69
2023/03/17 11:24:08;;;;;;;8.70;5.10;;;;;;;11.05;32.84;100888.14;103056;1256;140171;-70
2023/03/17 11:26:56;;;;;;;9.90;4.80;;;;;;;10.96;33.01;100883.48;103558;1250;106613;-69